Terminal Aerodrome Forecast
Issued by NWS Spokane, WA

Home | Current Version | Previous Version | Text Only | Print | Product List | Glossary On
Versions: 1 2 3 4 5 6 7 8 9 10 11 12 13 14 15 16 17 18 19 20 21 22 23 24
000
FTUS46 KOTX 312339
TAFLWS
TAF
KLWS 312339Z 0100/0124 33008KT P6SM BKN200
     FM010600 VRB03KT P6SM FEW120 BKN150
     FM011200 VRB02KT P6SM SCT100 BKN150
     FM012100 01006KT P6SM VCTS SCT100CB BKN120=

USA.gov is the U.S. government's official web portal to all federal, state and local government web resources and services.